Time;durP1;ratioP1;P1;durP2;ratioP2;P2;SDS_P1;SDS_P2;PMS_P1;PMS_P2;Temp;Humidity;BMP_temperature;BMP_pressure;BME280_temperature;BME280_humidity;BME280_pressure;Samples;Min_cycle;Max_cycle;Signal;HPM_P1;HPM_P2
2021/10/05 00:02:12;;;;;;;8.13;4.80;;;12.40;99.90;;;;;;5068524;28;20455;-68
2021/10/05 00:04:39;;;;;;;6.72;4.82;;;12.50;99.90;;;;;;5071909;28;20060;-67
2021/10/05 00:07:06;;;;;;;7.35;4.78;;;12.50;99.90;;;;;;5067080;28;20040;-68
2021/10/05 00:09:34;;;;;;;5.90;4.15;;;12.40;99.90;;;;;;5068750;28;20092;-69
2021/10/05 00:12:01;;;;;;;6.38;4.28;;;12.40;99.90;;;;;;5072810;28;20045;-69
2021/10/05 00:14:28;;;;;;;7.05;5.10;;;12.30;99.90;;;;;;5068976;28;20052;-69
2021/10/05 00:16:55;;;;;;;6.78;4.53;;;12.40;99.90;;;;;;5073570;28;20037;-69
2021/10/05 00:19:23;;;;;;;6.80;5.20;;;12.30;99.90;;;;;;5068630;28;20468;-69
2021/10/05 00:21:51;;;;;;;7.70;4.93;;;12.30;99.90;;;;;;5050428;28;20052;-69
2021/10/05 00:24:18;;;;;;;7.47;4.32;;;12.30;99.90;;;;;;5068520;28;20048;-69
2021/10/05 00:26:46;;;;;;;7.93;4.93;;;12.20;99.90;;;;;;5070387;28;20048;-69
2021/10/05 00:29:13;;;;;;;9.27;4.63;;;12.20;99.90;;;;;;5073077;28;20046;-69
2021/10/05 00:31:41;;;;;;;5.75;4.05;;;12.30;99.90;;;;;;5076615;28;20040;-69
2021/10/05 00:34:08;;;;;;;7.80;4.43;;;12.30;99.90;;;;;;5077660;28;20770;-69
2021/10/05 00:36:36;;;;;;;6.70;4.30;;;12.30;99.90;;;;;;5079817;28;20044;-69
2021/10/05 00:39:03;;;;;;;6.43;4.22;;;12.30;99.90;;;;;;5079928;28;20047;-69
2021/10/05 00:41:33;;;;;;;6.57;4.50;;;12.30;99.90;;;;;;5081247;28;20398;-69
2021/10/05 00:44:00;;;;;;;7.20;4.70;;;12.30;99.90;;;;;;5081411;28;20036;-69
2021/10/05 00:46:28;;;;;;;6.28;4.57;;;12.30;99.90;;;;;;5078207;28;20044;-67
2021/10/05 00:48:56;;;;;;;6.72;4.90;;;12.30;99.90;;;;;;5064897;28;20041;-67
2021/10/05 00:51:23;;;;;;;6.72;4.60;;;12.30;99.90;;;;;;5082071;28;20064;-67
2021/10/05 00:53:53;;;;;;;6.50;4.30;;;12.30;99.90;;;;;;5049795;28;20569;-67
2021/10/05 00:56:21;;;;;;;6.97;4.30;;;12.20;99.90;;;;;;5069413;28;20116;-69
2021/10/05 00:58:49;;;;;;;6.80;4.70;;;12.30;99.90;;;;;;5087362;28;20114;-67
2021/10/05 01:01:16;;;;;;;6.82;4.50;;;12.30;99.90;;;;;;5076384;28;20045;-68
2021/10/05 01:03:44;;;;;;;6.53;4.60;;;12.30;99.90;;;;;;5076255;28;20047;-68
2021/10/05 01:06:11;;;;;;;6.80;4.55;;;12.30;99.90;;;;;;5074220;28;20056;-68
2021/10/05 01:08:38;;;;;;;10.55;6.10;;;12.30;99.90;;;;;;5079401;28;20115;-68
2021/10/05 01:11:06;;;;;;;10.40;5.40;;;12.40;99.90;;;;;;5080749;28;20044;-68
2021/10/05 01:13:33;;;;;;;7.05;5.38;;;12.30;99.90;;;;;;5087231;28;20040;-68
2021/10/05 01:16:01;;;;;;;6.97;4.95;;;12.40;99.90;;;;;;5086439;28;20405;-68
2021/10/05 01:18:28;;;;;;;7.20;5.15;;;12.30;99.90;;;;;;5091112;28;20044;-68
2021/10/05 01:21:05;;;;;;;6.35;4.65;;;12.30;99.90;;;;;;5091455;28;20447;-68
2021/10/05 01:23:33;;;;;;;6.07;4.55;;;12.30;99.90;;;;;;5055476;28;20135;-68
2021/10/05 01:26:02;;;;;;;6.32;4.57;;;12.30;99.90;;;;;;5079110;28;20401;-68
2021/10/05 01:28:30;;;;;;;7.75;5.22;;;12.30;99.90;;;;;;5085898;28;20056;-68
2021/10/05 01:30:57;;;;;;;6.65;4.85;;;12.30;99.90;;;;;;5087396;28;20040;-68
2021/10/05 01:33:27;;;;;;;6.43;5.03;;;12.20;99.90;;;;;;5076174;28;20052;-68
2021/10/05 01:35:55;;;;;;;7.28;5.22;;;12.10;99.90;;;;;;5084323;28;20048;-69
2021/10/05 01:38:23;;;;;;;6.68;5.13;;;12.10;99.90;;;;;;5066404;28;20056;-69
2021/10/05 01:40:50;;;;;;;6.78;5.18;;;12.10;99.90;;;;;;5077821;28;20048;-68
2021/10/05 01:43:17;;;;;;;6.97;5.20;;;12.10;99.90;;;;;;5073406;28;20048;-68
2021/10/05 01:45:45;;;;;;;5.97;4.65;;;12.10;99.90;;;;;;5058893;28;20040;-68
2021/10/05 01:48:12;;;;;;;6.68;5.00;;;12.10;99.90;;;;;;5070450;28;20102;-68
2021/10/05 01:50:40;;;;;;;9.00;5.38;;;12.10;99.90;;;;;;5074905;28;20040;-68
2021/10/05 01:53:07;;;;;;;7.68;5.30;;;12.20;99.90;;;;;;5070425;28;20102;-68
2021/10/05 01:55:34;;;;;;;7.68;5.80;;;12.10;99.90;;;;;;5076572;28;20047;-68
2021/10/05 01:58:02;;;;;;;8.70;5.80;;;12.10;99.90;;;;;;5078993;28;20422;-67
2021/10/05 02:00:29;;;;;;;7.88;5.45;;;12.10;99.90;;;;;;5077030;28;20114;-68
2021/10/05 02:02:56;;;;;;;9.10;6.22;;;12.10;99.90;;;;;;5077895;28;20086;-68
2021/10/05 02:05:24;;;;;;;8.65;6.35;;;12.10;99.90;;;;;;5086080;28;20123;-68
2021/10/05 02:07:51;;;;;;;7.50;6.13;;;12.10;99.90;;;;;;5080385;28;20043;-68
2021/10/05 02:10:19;;;;;;;8.32;6.07;;;12.10;99.90;;;;;;5087056;28;20036;-68
2021/10/05 02:12:46;;;;;;;8.45;6.35;;;12.10;99.90;;;;;;5083429;28;20502;-68
2021/10/05 02:15:13;;;;;;;15.07;7.72;;;12.10;99.90;;;;;;5075693;28;20055;-68
2021/10/05 02:17:40;;;;;;;9.90;7.05;;;12.10;99.90;;;;;;5084814;28;20097;-68
2021/10/05 02:20:09;;;;;;;13.38;8.23;;;12.10;99.90;;;;;;5079833;28;20055;-67
2021/10/05 02:22:36;;;;;;;9.50;6.88;;;12.10;99.90;;;;;;5071939;28;20490;-68
2021/10/05 02:25:04;;;;;;;12.43;7.40;;;12.00;99.90;;;;;;5071202;28;20040;-68
2021/10/05 02:27:32;;;;;;;9.13;7.25;;;11.90;99.90;;;;;;5083272;28;20075;-68
2021/10/05 02:29:59;;;;;;;11.15;7.88;;;11.90;99.90;;;;;;5078722;28;20060;-68
2021/10/05 02:32:27;;;;;;;11.30;7.68;;;11.90;99.90;;;;;;5085772;28;20043;-68
2021/10/05 02:34:55;;;;;;;9.57;7.68;;;11.90;99.90;;;;;;5076020;28;20392;-68
2021/10/05 02:37:23;;;;;;;10.90;8.43;;;11.90;99.90;;;;;;5081655;28;20051;-68
2021/10/05 02:39:50;;;;;;;10.88;7.97;;;11.90;99.90;;;;;;5077811;28;20496;-68
2021/10/05 02:42:21;;;;;;;11.32;8.02;;;11.90;99.90;;;;;;5067963;28;20493;-68
2021/10/05 02:44:48;;;;;;;11.20;8.43;;;11.90;99.90;;;;;;5070366;28;20518;-69
2021/10/05 02:47:16;;;;;;;10.10;7.63;;;11.90;99.90;;;;;;5073485;28;20036;-68
2021/10/05 02:49:43;;;;;;;8.82;7.57;;;11.90;99.90;;;;;;5061352;28;20101;-68
2021/10/05 02:52:17;;;;;;;11.07;7.68;;;11.90;99.90;;;;;;5072665;28;20040;-68
2021/10/05 02:54:48;;;;;;;11.48;8.20;;;11.90;99.90;;;;;;5073120;28;20071;-67
2021/10/05 02:57:17;;;;;;;12.13;8.23;;;12.00;99.90;;;;;;5072341;28;20055;-68
2021/10/05 02:59:45;;;;;;;12.82;9.32;;;11.90;99.90;;;;;;5076637;28;20055;-68
2021/10/05 03:02:14;;;;;;;13.25;10.25;;;11.90;99.90;;;;;;5073357;28;20051;-68
2021/10/05 03:04:42;;;;;;;10.90;8.55;;;11.90;99.90;;;;;;5073732;28;20056;-68
2021/10/05 03:07:09;;;;;;;10.95;8.95;;;11.80;99.90;;;;;;5071606;28;20047;-68
2021/10/05 03:09:36;;;;;;;14.98;9.57;;;11.90;99.90;;;;;;5070388;28;20045;-68
2021/10/05 03:12:04;;;;;;;12.27;9.27;;;11.80;99.90;;;;;;5070496;28;20402;-68
2021/10/05 03:14:31;;;;;;;13.55;8.68;;;11.80;99.90;;;;;;5071370;28;20048;-68
2021/10/05 03:16:58;;;;;;;11.93;8.90;;;11.90;99.90;;;;;;5072941;28;20040;-68
2021/10/05 03:19:25;;;;;;;12.45;8.52;;;11.90;99.90;;;;;;5069463;28;20052;-68
2021/10/05 03:21:53;;;;;;;9.95;7.85;;;11.90;99.90;;;;;;5070670;28;20055;-68
2021/10/05 03:24:20;;;;;;;10.77;8.93;;;11.90;99.90;;;;;;5071159;28;20044;-68
2021/10/05 03:26:47;;;;;;;15.25;9.73;;;11.90;99.90;;;;;;5072426;28;20379;-68
2021/10/05 03:29:15;;;;;;;12.25;9.43;;;11.90;99.90;;;;;;5069316;28;20044;-68
2021/10/05 03:31:42;;;;;;;13.43;9.50;;;12.00;99.90;;;;;;5050166;28;20422;-68
2021/10/05 03:34:10;;;;;;;12.10;9.63;;;12.00;99.90;;;;;;5066786;28;20576;-68
2021/10/05 03:36:37;;;;;;;13.32;10.77;;;11.90;99.90;;;;;;5072785;28;20072;-67
2021/10/05 03:39:04;;;;;;;12.13;10.10;;;11.90;99.90;;;;;;5076492;28;20043;-68
2021/10/05 03:41:31;;;;;;;13.90;10.20;;;11.90;99.90;;;;;;5073465;28;20044;-67
2021/10/05 03:43:59;;;;;;;12.90;10.23;;;11.90;99.90;;;;;;5078055;28;20517;-68
2021/10/05 03:46:26;;;;;;;14.85;10.77;;;11.90;99.90;;;;;;5080557;28;20378;-68
2021/10/05 03:48:54;;;;;;;15.02;11.75;;;11.90;99.90;;;;;;5078556;28;20036;-67
2021/10/05 03:51:21;;;;;;;14.63;11.25;;;11.80;99.90;;;;;;5077280;28;20131;-68
2021/10/05 03:53:49;;;;;;;17.20;11.50;;;11.80;99.90;;;;;;5072876;28;20044;-67
2021/10/05 03:56:16;;;;;;;15.90;11.70;;;11.80;99.90;;;;;;5070197;28;20048;-68
2021/10/05 03:58:43;;;;;;;15.95;11.50;;;11.80;99.90;;;;;;5086660;28;20044;-68
2021/10/05 04:01:11;;;;;;;14.05;11.13;;;11.80;99.90;;;;;;5086933;28;20044;-68
2021/10/05 04:03:39;;;;;;;15.45;11.32;;;11.80;99.90;;;;;;5088658;28;20089;-68
2021/10/05 04:06:06;;;;;;;15.77;10.55;;;11.80;99.90;;;;;;5080380;28;20048;-68
2021/10/05 04:08:33;;;;;;;18.27;13.15;;;11.80;99.90;;;;;;5085298;28;20474;-68
2021/10/05 04:11:01;;;;;;;14.30;10.55;;;11.80;99.90;;;;;;5085601;28;20142;-68
2021/10/05 04:13:29;;;;;;;19.45;13.73;;;11.90;99.90;;;;;;5080342;28;20582;-68
2021/10/05 04:15:56;;;;;;;16.50;12.35;;;11.80;99.90;;;;;;5060038;28;20053;-68
2021/10/05 04:18:24;;;;;;;17.02;12.13;;;11.80;99.90;;;;;;5077773;28;20040;-68
2021/10/05 04:20:51;;;;;;;14.30;11.07;;;11.80;99.90;;;;;;5078260;28;20159;-68
2021/10/05 04:23:18;;;;;;;14.88;10.80;;;11.90;99.90;;;;;;5069639;28;20048;-68
2021/10/05 04:25:46;;;;;;;16.50;12.10;;;11.90;99.90;;;;;;5090767;28;20040;-68
2021/10/05 04:28:13;;;;;;;16.45;12.15;;;11.90;99.90;;;;;;5087496;28;20044;-68
2021/10/05 04:30:41;;;;;;;20.42;12.23;;;11.90;99.90;;;;;;5083137;28;20469;-68
2021/10/05 04:33:08;;;;;;;15.13;12.05;;;11.90;99.90;;;;;;5084356;28;20418;-68
2021/10/05 04:35:35;;;;;;;17.63;13.25;;;11.80;99.90;;;;;;5084163;28;20036;-68
2021/10/05 04:38:03;;;;;;;17.67;13.82;;;11.80;99.90;;;;;;5083443;28;20036;-68
2021/10/05 04:40:30;;;;;;;17.67;12.60;;;11.80;99.90;;;;;;5079297;28;20066;-68
2021/10/05 04:42:57;;;;;;;17.55;12.63;;;11.80;99.90;;;;;;5091324;28;20488;-68
2021/10/05 04:45:24;;;;;;;17.27;12.63;;;11.70;99.90;;;;;;5088307;28;20386;-68
2021/10/05 04:47:52;;;;;;;16.08;11.90;;;11.80;99.90;;;;;;5092358;28;20040;-68
2021/10/05 04:50:19;;;;;;;16.10;12.15;;;11.70;99.90;;;;;;5093449;28;20072;-68
2021/10/05 04:52:46;;;;;;;16.30;12.30;;;11.80;99.90;;;;;;5079318;28;20040;-68
2021/10/05 04:55:14;;;;;;;17.65;12.98;;;11.70;99.90;;;;;;5073256;28;20799;-68
2021/10/05 04:57:41;;;;;;;15.65;11.63;;;11.70;99.90;;;;;;5066130;28;20064;-68
2021/10/05 05:00:09;;;;;;;18.55;11.82;;;11.70;99.90;;;;;;5074938;28;20048;-68
2021/10/05 05:02:36;;;;;;;16.80;12.38;;;11.80;99.90;;;;;;5087425;28;20541;-68
2021/10/05 05:05:04;;;;;;;15.82;10.95;;;11.80;99.90;;;;;;5089625;28;20036;-68
2021/10/05 05:07:33;;;;;;;14.43;10.57;;;11.70;99.90;;;;;;5074313;28;20402;-69
2021/10/05 05:10:02;;;;;;;18.58;13.23;;;11.80;99.90;;;;;;5082765;28;20039;-68
2021/10/05 05:12:30;;;;;;;17.27;12.90;;;11.80;99.90;;;;;;5080445;28;20037;-68
2021/10/05 05:14:59;;;;;;;17.67;13.52;;;11.80;99.90;;;;;;5082908;28;20097;-68
2021/10/05 05:17:27;;;;;;;19.83;13.50;;;11.90;99.90;;;;;;5079911;28;20041;-67
2021/10/05 05:19:54;;;;;;;19.92;13.32;;;11.80;99.90;;;;;;5068397;28;20049;-67
2021/10/05 05:22:21;;;;;;;16.25;12.18;;;11.80;99.90;;;;;;5084817;28;20044;-68
2021/10/05 05:24:48;;;;;;;17.75;13.25;;;11.80;99.90;;;;;;5078769;28;20392;-67
2021/10/05 05:27:16;;;;;;;18.33;13.05;;;11.80;99.90;;;;;;5077531;28;20410;-67
2021/10/05 05:29:43;;;;;;;17.50;12.60;;;11.70;99.90;;;;;;5080655;28;20048;-67
2021/10/05 05:32:10;;;;;;;15.35;10.85;;;11.70;99.90;;;;;;5075124;28;20040;-66
2021/10/05 05:34:38;;;;;;;17.63;12.48;;;11.60;99.90;;;;;;5074180;28;20048;-67
2021/10/05 05:37:06;;;;;;;17.83;12.20;;;11.70;99.90;;;;;;5075786;28;20052;-67
2021/10/05 05:39:35;;;;;;;20.67;13.63;;;11.60;99.90;;;;;;5071525;28;20051;-67
2021/10/05 05:42:03;;;;;;;17.70;11.85;;;11.60;99.90;;;;;;5060712;28;20048;-67
2021/10/05 05:44:30;;;;;;;17.30;11.98;;;11.60;99.90;;;;;;5061764;28;20045;-67
2021/10/05 05:46:58;;;;;;;17.45;10.32;;;11.70;99.90;;;;;;5054118;28;20047;-67
2021/10/05 05:49:25;;;;;;;18.88;11.00;;;11.70;99.90;;;;;;5073436;28;20041;-68
2021/10/05 05:51:52;;;;;;;15.93;11.07;;;11.70;99.90;;;;;;5058965;28;20037;-68
2021/10/05 05:54:20;;;;;;;17.83;11.98;;;11.80;99.90;;;;;;5058254;28;20052;-67
2021/10/05 05:56:48;;;;;;;16.13;10.95;;;11.80;99.90;;;;;;5056230;28;20102;-67
2021/10/05 05:59:15;;;;;;;17.20;11.50;;;11.70;99.90;;;;;;5073169;28;20418;-67
2021/10/05 06:01:42;;;;;;;18.02;11.45;;;11.70;99.90;;;;;;5076006;28;20044;-67
2021/10/05 06:04:09;;;;;;;16.48;11.48;;;11.70;99.90;;;;;;5071580;28;20088;-67
2021/10/05 06:06:37;;;;;;;17.50;11.68;;;11.70;99.90;;;;;;5070178;28;20036;-67
2021/10/05 06:09:04;;;;;;;19.88;11.73;;;11.70;99.90;;;;;;5074246;28;20047;-67
2021/10/05 06:11:34;;;;;;;19.35;11.65;;;11.80;99.90;;;;;;5076314;28;20040;-67
2021/10/05 06:14:02;;;;;;;16.10;10.88;;;11.80;99.90;;;;;;5073749;28;20046;-67
2021/10/05 06:16:29;;;;;;;18.63;11.55;;;11.70;99.90;;;;;;5071131;28;20056;-67
2021/10/05 06:18:57;;;;;;;15.65;11.18;;;11.70;99.90;;;;;;5072555;28;20040;-67
2021/10/05 06:21:24;;;;;;;19.27;11.63;;;11.70;99.90;;;;;;5070771;28;20044;-67
2021/10/05 06:23:51;;;;;;;16.75;11.43;;;11.80;99.90;;;;;;5070312;28;20376;-67
2021/10/05 06:26:19;;;;;;;16.88;11.23;;;11.70;99.90;;;;;;5056562;28;20061;-67
2021/10/05 06:28:46;;;;;;;15.48;10.65;;;11.80;99.90;;;;;;5054324;28;20827;-67
2021/10/05 06:31:13;;;;;;;18.35;11.07;;;11.80;99.90;;;;;;5072711;28;20040;-67
2021/10/05 06:33:41;;;;;;;15.95;10.60;;;11.70;99.90;;;;;;5076592;28;20473;-67
2021/10/05 06:36:09;;;;;;;17.67;11.38;;;11.80;99.90;;;;;;5073623;28;20036;-67
2021/10/05 06:38:36;;;;;;;18.52;10.70;;;11.80;99.90;;;;;;5074350;28;20113;-66
2021/10/05 06:41:04;;;;;;;16.10;10.55;;;11.70;99.90;;;;;;5075288;28;20055;-67
2021/10/05 06:43:31;;;;;;;17.13;11.50;;;11.70;99.90;;;;;;5074149;28;20079;-67
2021/10/05 06:45:58;;;;;;;17.85;10.55;;;11.70;99.90;;;;;;5075557;28;20032;-67
2021/10/05 06:48:26;;;;;;;17.45;11.73;;;11.60;99.90;;;;;;5073362;28;20071;-67
2021/10/05 06:50:53;;;;;;;17.17;11.13;;;11.60;99.90;;;;;;5040906;28;20066;-67
2021/10/05 06:53:21;;;;;;;17.92;10.05;;;11.60;99.90;;;;;;5056190;28;20040;-67
2021/10/05 06:55:48;;;;;;;15.98;10.18;;;11.60;99.90;;;;;;5081742;28;20052;-67
2021/10/05 06:58:16;;;;;;;14.95;9.90;;;11.70;99.90;;;;;;5069260;28;20070;-68
2021/10/05 07:00:43;;;;;;;17.40;9.68;;;11.80;99.90;;;;;;5064601;28;20045;-67
2021/10/05 07:03:11;;;;;;;15.15;10.02;;;11.90;99.90;;;;;;5081127;28;20051;-67
2021/10/05 07:05:39;;;;;;;13.70;9.23;;;11.90;99.90;;;;;;5084667;28;20075;-67
2021/10/05 07:08:07;;;;;;;13.52;8.55;;;11.90;99.90;;;;;;5066542;28;20411;-66
2021/10/05 07:10:36;;;;;;;14.70;9.13;;;11.90;99.90;;;;;;5069749;28;20060;-67
2021/10/05 07:13:05;;;;;;;15.38;8.73;;;11.90;99.90;;;;;;5069481;28;20036;-66
2021/10/05 07:15:33;;;;;;;16.25;9.48;;;11.90;99.90;;;;;;5068083;28;20422;-67
2021/10/05 07:18:01;;;;;;;15.60;9.00;;;11.90;99.90;;;;;;5071999;28;20407;-67
2021/10/05 07:20:30;;;;;;;13.13;8.65;;;11.90;99.90;;;;;;5076867;28;20054;-67
2021/10/05 07:22:59;;;;;;;13.68;8.43;;;11.90;99.90;;;;;;5068645;28;20047;-67
2021/10/05 07:25:28;;;;;;;15.57;8.98;;;12.00;99.90;;;;;;5083870;28;20123;-67
2021/10/05 07:27:56;;;;;;;12.57;8.68;;;12.00;99.90;;;;;;5084179;28;20379;-67
2021/10/05 07:30:24;;;;;;;11.32;8.25;;;12.10;99.90;;;;;;5083839;28;20040;-67
2021/10/05 07:32:55;;;;;;;19.40;9.18;;;12.10;99.90;;;;;;5083603;28;20054;-67
2021/10/05 07:35:23;;;;;;;12.18;7.57;;;12.10;99.90;;;;;;5057034;28;20403;-67
2021/10/05 07:37:51;;;;;;;12.73;7.78;;;12.00;99.90;;;;;;5057120;28;20056;-67
2021/10/05 07:40:23;;;;;;;10.02;7.57;;;12.00;99.90;;;;;;5070094;28;20045;-67
2021/10/05 07:42:53;;;;;;;11.18;7.70;;;12.10;99.90;;;;;;5069571;28;20044;-67
2021/10/05 07:45:22;;;;;;;10.93;7.47;;;12.10;99.90;;;;;;5068149;28;20041;-66
2021/10/05 07:47:50;;;;;;;9.18;6.95;;;12.10;99.90;;;;;;5071330;28;20451;-67
2021/10/05 07:50:18;;;;;;;11.05;7.20;;;12.20;99.90;;;;;;5068647;28;20124;-68
2021/10/05 07:52:45;;;;;;;10.65;7.75;;;12.10;99.90;;;;;;5072869;28;20470;-67
2021/10/05 07:55:13;;;;;;;11.10;7.32;;;12.10;99.90;;;;;;5052929;28;20050;-67
2021/10/05 07:57:41;;;;;;;12.00;7.43;;;12.10;99.90;;;;;;5050443;28;20454;-67
2021/10/05 08:00:10;;;;;;;13.95;9.32;;;12.10;99.90;;;;;;5082868;28;20379;-67
2021/10/05 08:02:38;;;;;;;9.88;6.85;;;12.00;99.90;;;;;;5068094;28;20040;-67
2021/10/05 08:05:06;;;;;;;9.55;6.60;;;12.00;99.90;;;;;;5070784;28;20040;-67
2021/10/05 08:07:34;;;;;;;8.85;6.32;;;11.90;99.90;;;;;;5064302;28;20040;-67
2021/10/05 08:10:01;;;;;;;11.73;7.20;;;11.90;99.90;;;;;;5081450;28;20461;-66
2021/10/05 08:12:28;;;;;;;8.40;5.95;;;11.90;99.90;;;;;;5067002;28;20050;-67
2021/10/05 08:14:56;;;;;;;8.10;5.75;;;11.90;99.90;;;;;;5074639;28;20098;-67
2021/10/05 08:17:23;;;;;;;6.93;5.20;;;11.90;99.90;;;;;;5081961;28;20051;-67
2021/10/05 08:19:51;;;;;;;7.63;5.10;;;11.90;99.90;;;;;;5077885;28;20608;-67
2021/10/05 08:22:18;;;;;;;7.00;4.38;;;11.90;99.90;;;;;;5083280;28;20056;-67
2021/10/05 08:24:46;;;;;;;8.25;4.55;;;12.00;99.90;;;;;;5081084;28;20079;-67
2021/10/05 08:27:13;;;;;;;7.43;4.43;;;12.00;99.90;;;;;;5083980;28;20040;-68
2021/10/05 08:29:43;;;;;;;7.68;5.40;;;12.10;99.90;;;;;;5081791;28;20497;-68
2021/10/05 08:32:11;;;;;;;5.93;4.32;;;12.20;99.90;;;;;;5082783;28;20067;-67
2021/10/05 08:34:38;;;;;;;6.85;4.68;;;12.30;99.90;;;;;;5082299;28;20048;-67
2021/10/05 08:37:06;;;;;;;8.02;5.38;;;12.40;99.90;;;;;;5075933;28;20056;-67
2021/10/05 08:39:34;;;;;;;7.28;5.28;;;12.30;99.90;;;;;;5081905;28;20044;-68
2021/10/05 08:42:01;;;;;;;8.25;5.68;;;12.30;99.90;;;;;;5078475;28;20066;-67
2021/10/05 08:44:29;;;;;;;7.70;5.57;;;12.30;99.90;;;;;;5072257;28;20048;-68
2021/10/05 08:46:56;;;;;;;8.98;5.82;;;12.30;99.90;;;;;;5070593;28;20450;-67
2021/10/05 08:49:24;;;;;;;7.47;5.10;;;12.40;99.90;;;;;;5056396;28;20048;-67
2021/10/05 08:51:55;;;;;;;9.02;5.45;;;12.40;99.90;;;;;;5079665;28;20475;-67
2021/10/05 08:54:23;;;;;;;11.18;5.57;;;12.40;99.90;;;;;;5068785;28;20119;-67
2021/10/05 08:56:51;;;;;;;7.97;5.85;;;12.50;99.90;;;;;;5068960;28;20103;-68
2021/10/05 08:59:18;;;;;;;12.75;6.43;;;12.50;99.90;;;;;;5067882;28;20425;-68
2021/10/05 09:01:49;;;;;;;9.30;6.47;;;12.50;99.90;;;;;;5075061;28;20064;-68
2021/10/05 09:04:17;;;;;;;;;;;12.60;99.90;;;;;;5059041;28;20053;-68
2021/10/05 09:06:51;;;;;;;9.10;5.95;;;12.70;99.90;;;;;;5069408;28;20271;-68
2021/10/05 09:09:19;;;;;;;10.20;6.55;;;12.70;99.90;;;;;;5063747;28;20044;-67
2021/10/05 09:11:52;;;;;;;10.10;6.45;;;12.80;99.90;;;;;;5075892;28;20028;-67
2021/10/05 09:14:20;;;;;;;7.95;6.07;;;12.80;99.90;;;;;;5074686;28;20706;-67
2021/10/05 09:16:48;;;;;;;8.20;6.22;;;12.90;99.90;;;;;;5059979;28;20076;-67
2021/10/05 09:19:17;;;;;;;9.52;6.53;;;12.90;99.90;;;;;;5064101;28;20056;-67
2021/10/05 09:21:48;;;;;;;8.48;6.10;;;12.90;99.90;;;;;;5068293;28;20093;-68
2021/10/05 09:24:32;;;;;;;10.70;7.05;;;12.90;99.90;;;;;;5067647;28;20112;-67
2021/10/05 09:27:04;;;;;;;7.70;6.03;;;12.90;99.90;;;;;;5056703;28;20040;-67
2021/10/05 09:29:37;;;;;;;8.80;6.55;;;12.90;99.90;;;;;;5075574;28;20152;-67
2021/10/05 09:32:07;;;;;;;9.35;6.50;;;13.00;99.90;;;;;;5060592;28;20111;-67
2021/10/05 09:34:57;;;;;;;8.10;6.18;;;13.00;99.90;;;;;;5080552;28;20753;-67
2021/10/05 09:37:27;;;;;;;9.00;6.53;;;13.10;99.90;;;;;;5079056;28;20059;-68
2021/10/05 09:40:12;;;;;;;9.48;6.28;;;13.10;99.90;;;;;;5076034;28;20041;-67
2021/10/05 09:42:44;;;;;;;7.68;4.85;;;13.10;99.90;;;;;;5075342;28;20048;-67
2021/10/05 09:45:13;;;;;;;;;;;13.20;99.90;;;;;;5090949;28;20059;-67
2021/10/05 09:47:49;;;;;;;6.75;4.97;;;13.10;99.90;;;;;;5091949;28;20031;-67
2021/10/05 09:50:31;;;;;;;9.40;4.80;;;13.10;99.90;;;;;;5081042;28;20045;-68
2021/10/05 09:53:01;;;;;;;5.60;4.30;;;13.40;99.90;;;;;;5068717;28;20057;-67
2021/10/05 09:55:31;;;;;;;5.25;3.80;;;13.50;99.90;;;;;;5072215;28;20051;-68
2021/10/05 09:57:58;;;;;;;6.07;4.70;;;13.70;99.90;;;;;;5064526;28;20139;-67
2021/10/05 10:00:29;;;;;;;5.93;4.35;;;13.70;99.90;;;;;;5086986;28;20072;-67
2021/10/05 10:02:57;;;;;;;5.67;4.30;;;13.70;99.90;;;;;;5074336;28;20174;-67
2021/10/05 10:05:27;;;;;;;7.82;4.75;;;13.60;99.90;;;;;;5076473;28;20290;-68
2021/10/05 10:07:57;;;;;;;8.43;5.47;;;13.70;99.90;;;;;;5074603;28;20517;-66
2021/10/05 10:10:29;;;;;;;10.13;5.50;;;13.50;99.90;;;;;;5076147;28;20040;-67
2021/10/05 10:13:10;;;;;;;7.43;5.18;;;13.40;99.90;;;;;;5073365;28;20044;-66
2021/10/05 10:15:39;;;;;;;10.48;5.90;;;13.20;99.90;;;;;;5086153;28;20045;-67
2021/10/05 10:18:07;;;;;;;7.55;4.55;;;13.10;99.90;;;;;;5082228;28;20130;-67
2021/10/05 10:20:36;;;;;;;9.10;5.22;;;13.10;99.90;;;;;;5088949;28;20055;-66
2021/10/05 10:23:19;;;;;;;7.47;4.90;;;12.90;99.90;;;;;;5058957;28;20044;-67
2021/10/05 10:26:00;;;;;;;8.80;6.22;;;12.90;99.90;;;;;;5059592;28;20049;-68
2021/10/05 10:28:31;;;;;;;8.40;5.43;;;12.90;99.90;;;;;;5054681;28;20080;-67
2021/10/05 10:31:05;;;;;;;7.53;5.13;;;12.90;99.90;;;;;;5073984;28;20139;-67
2021/10/05 10:33:47;;;;;;;6.97;4.47;;;12.90;99.90;;;;;;5072595;28;20040;-67
2021/10/05 10:36:50;;;;;;;6.38;4.57;;;12.80;99.90;;;;;;5077858;28;20049;-67
2021/10/05 10:39:24;;;;;;;5.07;3.88;;;12.90;99.90;;;;;;5061369;28;20428;-67
2021/10/05 10:41:51;;;;;;;6.65;3.78;;;12.90;99.90;;;;;;5070776;28;20053;-67
2021/10/05 10:44:26;;;;;;;4.82;3.22;;;13.10;99.90;;;;;;5068356;28;20135;-67
2021/10/05 10:47:09;;;;;;;5.03;3.40;;;13.20;99.90;;;;;;5067883;28;20671;-67
2021/10/05 10:49:37;;;;;;;5.13;3.13;;;13.40;99.90;;;;;;5054292;28;20040;-67
2021/10/05 10:52:05;;;;;;;4.20;3.08;;;13.40;99.90;;;;;;5071107;28;20048;-68
2021/10/05 10:54:33;;;;;;;5.97;3.45;;;13.50;99.90;;;;;;5068284;28;20053;-67
2021/10/05 10:57:05;;;;;;;3.75;2.65;;;13.60;99.90;;;;;;5059835;28;20036;-67
2021/10/05 10:59:32;;;;;;;;;;;13.60;99.90;;;;;;5055305;28;20052;-68
2021/10/05 11:02:06;;;;;;;4.15;3.20;;;13.70;99.90;;;;;;5042291;28;20401;-67
2021/10/05 11:04:34;;;;;;;5.28;3.55;;;13.70;99.90;;;;;;5071881;28;20139;-69
2021/10/05 11:07:02;;;;;;;5.18;3.42;;;13.80;99.90;;;;;;5067582;28;20059;-67
2021/10/05 11:09:35;;;;;;;5.50;3.83;;;13.90;99.90;;;;;;5080852;28;20558;-67
2021/10/05 11:12:08;;;;;;;6.28;4.45;;;14.10;99.90;;;;;;5067845;28;20475;-67
2021/10/05 11:14:39;;;;;;;6.43;4.57;;;14.30;99.90;;;;;;5055718;28;20101;-69
2021/10/05 11:17:10;;;;;;;5.82;4.13;;;14.40;99.90;;;;;;5076283;28;20040;-67
2021/10/05 11:19:42;;;;;;;7.63;4.90;;;14.50;99.90;;;;;;5088634;28;20048;-67
2021/10/05 11:22:14;;;;;;;8.30;6.57;;;14.40;99.90;;;;;;5071970;28;20110;-67
2021/10/05 11:24:45;;;;;;;8.68;6.10;;;14.30;99.90;;;;;;5082464;28;20056;-68
2021/10/05 11:27:20;;;;;;;8.13;5.25;;;14.10;99.90;;;;;;5088884;28;20040;-68
2021/10/05 11:29:49;;;;;;;7.25;5.25;;;14.00;99.90;;;;;;5089417;28;20039;-68
2021/10/05 11:32:18;;;;;;;7.03;4.43;;;14.10;99.90;;;;;;5087921;28;20135;-68
2021/10/05 11:34:48;;;;;;;6.03;4.13;;;14.20;99.90;;;;;;5084196;28;20044;-68
2021/10/05 11:37:18;;;;;;;6.78;4.72;;;14.40;99.90;;;;;;5087256;28;20063;-68
2021/10/05 11:39:47;;;;;;;7.10;4.65;;;14.50;99.90;;;;;;5079897;28;20126;-68
2021/10/05 11:42:21;;;;;;;5.47;3.75;;;14.50;99.90;;;;;;5068006;28;20040;-68
2021/10/05 11:44:54;;;;;;;5.68;4.18;;;14.50;99.90;;;;;;5070437;28;20067;-68
2021/10/05 11:47:24;;;;;;;6.53;4.68;;;14.40;99.90;;;;;;5066664;28;20052;-68
2021/10/05 11:50:03;;;;;;;5.65;4.07;;;14.30;99.90;;;;;;5059665;28;20090;-68
2021/10/05 11:52:35;;;;;;;6.50;4.35;;;14.20;99.90;;;;;;5056808;28;20458;-68
2021/10/05 11:55:03;;;;;;;5.97;4.50;;;14.10;99.90;;;;;;5065039;28;20044;-68
2021/10/05 11:57:33;;;;;;;7.90;4.47;;;14.20;99.90;;;;;;5071135;28;20045;-68
2021/10/05 12:00:08;;;;;;;5.63;4.07;;;14.30;99.90;;;;;;5067932;28;20068;-68
2021/10/05 12:02:40;;;;;;;7.15;4.00;;;14.40;99.90;;;;;;5078300;28;20050;-68
2021/10/05 12:05:19;;;;;;;5.10;3.63;;;14.40;99.90;;;;;;5085057;28;20039;-67
2021/10/05 12:07:46;;;;;;;5.43;3.15;;;14.40;99.90;;;;;;5082608;28;20045;-66
2021/10/05 12:10:14;;;;;;;5.47;3.00;;;14.50;99.90;;;;;;5085356;28;20051;-67
2021/10/05 12:12:41;;;;;;;4.50;2.78;;;14.60;99.90;;;;;;5084085;28;20051;-67
2021/10/05 12:15:20;;;;;;;4.47;2.85;;;14.60;99.90;;;;;;5072740;28;20090;-66
2021/10/05 12:18:07;;;;;;;4.07;2.70;;;14.70;99.90;;;;;;5071543;28;20045;-66
2021/10/05 12:21:03;;;;;;;5.35;2.50;;;14.70;99.90;;;;;;5070394;28;20512;-67
2021/10/05 12:23:30;;;;;;;3.92;2.50;;;14.80;99.90;;;;;;5063519;28;20060;-67
2021/10/05 12:26:09;;;;;;;3.63;2.10;;;14.90;99.90;;;;;;5085495;28;20561;-67
2021/10/05 12:28:37;;;;;;;3.08;2.05;;;14.90;99.90;;;;;;5083713;28;20045;-67
2021/10/05 12:31:14;;;;;;;3.88;2.13;;;15.00;99.90;;;;;;5074325;28;20040;-67
2021/10/05 12:33:53;;;;;;;3.70;2.00;;;15.00;99.90;;;;;;5077451;28;20033;-67
2021/10/05 12:36:21;;;;;;;3.35;2.00;;;15.20;99.90;;;;;;5078065;28;20090;-67
2021/10/05 12:38:48;;;;;;;3.47;1.90;;;15.30;99.90;;;;;;5078398;28;20489;-67
2021/10/05 12:41:16;;;;;;;3.42;2.08;;;15.50;99.90;;;;;;5070400;28;20040;-67
2021/10/05 12:43:44;;;;;;;4.82;1.80;;;15.60;99.90;;;;;;5053581;28;20040;-67
2021/10/05 12:46:19;;;;;;;3.72;2.10;;;15.90;99.90;;;;;;5051333;28;20045;-67
2021/10/05 12:48:51;;;;;;;3.67;1.67;;;16.20;99.90;;;;;;5067777;28;20076;-67
2021/10/05 12:51:21;;;;;;;4.35;1.77;;;16.50;99.90;;;;;;5069009;28;20537;-67